Time;durP1;ratioP1;P1;durP2;ratioP2;P2;SDS_P1;SDS_P2;PMS_P1;PMS_P2;Temp;Humidity;BMP_temperature;BMP_pressure;BME280_temperature;BME280_humidity;BME280_pressure;Samples;Min_cycle;Max_cycle;Signal;HPM_P1;HPM_P2
2021/12/09 00:01:09;;;;;;;18.90;9.48;;;1.60;99.90;;;;;;5092711;28;20132;-58
2021/12/09 00:03:40;;;;;;;19.83;10.32;;;1.60;99.90;;;;;;5110221;28;20031;-58
2021/12/09 00:06:08;;;;;;;20.02;10.40;;;1.60;99.90;;;;;;5108876;28;20120;-57
2021/12/09 00:08:36;;;;;;;21.98;11.25;;;1.50;99.90;;;;;;5110337;28;20032;-57
2021/12/09 00:11:06;;;;;;;18.13;10.45;;;1.50;99.90;;;;;;5100997;28;20934;-56
2021/12/09 00:13:32;;;;;;;20.70;11.07;;;1.70;99.90;;;;;;5107931;28;20785;-58
2021/12/09 00:15:58;;;;;;;18.92;11.38;;;1.50;99.90;;;;;;5108509;28;20092;-57
2021/12/09 00:18:24;;;;;;;27.00;11.18;;;1.50;99.90;;;;;;5110825;28;20040;-57
2021/12/09 00:20:51;;;;;;;21.98;11.15;;;1.50;99.90;;;;;;5089163;28;20048;-57
2021/12/09 00:23:16;;;;;;;21.27;10.90;;;1.50;99.90;;;;;;5110642;28;20036;-57
2021/12/09 00:25:42;;;;;;;25.80;11.50;;;1.50;99.90;;;;;;5098929;28;20058;-58
2021/12/09 00:28:08;;;;;;;19.85;11.93;;;1.50;99.90;;;;;;5121261;28;20039;-57
2021/12/09 00:30:35;;;;;;;22.15;11.15;;;1.50;99.90;;;;;;5105073;28;20134;-58
2021/12/09 00:33:04;;;;;;;24.08;11.60;;;1.60;99.90;;;;;;5110571;28;20024;-56
2021/12/09 00:35:41;;;;;;;19.13;11.75;;;1.60;99.90;;;;;;5108841;28;20038;-57
2021/12/09 00:38:09;;;;;;;21.45;11.57;;;1.60;99.90;;;;;;5110556;28;20036;-57
2021/12/09 00:40:35;;;;;;;22.05;11.80;;;1.60;99.90;;;;;;5088446;28;20033;-58
2021/12/09 00:43:01;;;;;;;23.77;11.75;;;1.60;99.90;;;;;;5110319;28;20043;-57
2021/12/09 00:45:27;;;;;;;19.95;12.13;;;1.60;99.90;;;;;;5108635;28;20073;-56
2021/12/09 00:47:53;;;;;;;21.10;11.93;;;1.60;99.90;;;;;;5092548;28;20031;-57
2021/12/09 00:50:20;;;;;;;22.13;12.15;;;1.60;99.90;;;;;;5108359;28;20089;-57
2021/12/09 00:52:47;;;;;;;21.92;11.80;;;1.60;99.90;;;;;;5091449;28;20047;-58
2021/12/09 00:55:14;;;;;;;24.23;12.38;;;1.60;99.90;;;;;;5105251;28;20126;-57
2021/12/09 00:57:41;;;;;;;22.98;11.85;;;1.60;99.90;;;;;;5110905;28;20100;-57
2021/12/09 01:00:14;;;;;;;22.80;12.93;;;1.60;99.90;;;;;;5090742;28;20032;-58
2021/12/09 01:02:40;;;;;;;25.65;12.02;;;1.60;99.90;;;;;;5095973;28;20466;-58
2021/12/09 01:05:07;;;;;;;22.42;12.57;;;1.60;99.90;;;;;;5110376;28;20051;-58
2021/12/09 01:07:35;;;;;;;21.05;12.43;;;1.60;99.90;;;;;;5113374;28;20051;-58
2021/12/09 01:10:02;;;;;;;25.17;12.95;;;1.60;99.90;;;;;;5100942;28;20083;-57
2021/12/09 01:12:27;;;;;;;21.63;12.13;;;1.70;99.90;;;;;;5113273;28;20036;-58
2021/12/09 01:14:53;;;;;;;25.38;13.35;;;1.60;99.90;;;;;;5107543;28;20093;-57
2021/12/09 01:17:19;;;;;;;28.13;13.60;;;1.60;99.90;;;;;;5095441;28;20031;-57
2021/12/09 01:19:46;;;;;;;24.45;12.35;;;1.60;99.90;;;;;;5082106;28;20040;-57
2021/12/09 01:22:12;;;;;;;24.58;13.38;;;1.60;99.90;;;;;;5113407;28;20044;-57
2021/12/09 01:24:38;;;;;;;27.30;13.57;;;1.60;99.90;;;;;;5106786;28;20059;-58
2021/12/09 01:27:04;;;;;;;22.92;12.50;;;1.60;99.90;;;;;;5107791;28;20505;-57
2021/12/09 01:29:37;;;;;;;23.35;13.02;;;1.60;99.90;;;;;;5111810;28;20490;-57
2021/12/09 01:32:06;;;;;;;27.58;13.60;;;1.60;99.90;;;;;;5113686;28;20044;-58
2021/12/09 01:34:33;;;;;;;27.25;13.57;;;1.60;99.90;;;;;;5108281;28;20040;-57
2021/12/09 01:36:59;;;;;;;22.90;13.25;;;1.80;99.90;;;;;;5111624;28;20066;-57
2021/12/09 01:39:28;;;;;;;22.77;13.10;;;1.50;99.90;;;;;;5113477;28;20066;-57
2021/12/09 01:41:54;;;;;;;29.05;13.25;;;1.50;99.90;;;;;;5108869;28;20035;-57
2021/12/09 01:44:21;;;;;;;29.45;14.55;;;1.70;99.90;;;;;;5111822;28;20153;-57
2021/12/09 01:46:47;;;;;;;26.02;14.00;;;1.50;99.90;;;;;;5109197;28;20092;-57
2021/12/09 01:49:13;;;;;;;29.88;14.55;;;1.50;99.90;;;;;;5109313;28;20039;-57
2021/12/09 01:51:41;;;;;;;30.10;14.68;;;1.50;99.90;;;;;;5105702;28;20104;-57
2021/12/09 01:54:07;;;;;;;33.47;14.68;;;1.40;99.90;;;;;;5108829;28;20122;-57
2021/12/09 01:56:33;;;;;;;26.83;14.38;;;1.50;99.90;;;;;;5091637;28;20543;-57
2021/12/09 01:59:03;;;;;;;24.45;13.45;;;1.40;99.90;;;;;;5112958;28;20059;-56
2021/12/09 02:01:30;;;;;;;27.58;14.05;;;1.50;99.90;;;;;;5107255;28;20080;-56
2021/12/09 02:03:57;;;;;;;26.35;14.02;;;1.50;99.90;;;;;;5094810;28;20044;-56
2021/12/09 02:06:25;;;;;;;27.38;14.38;;;1.50;99.90;;;;;;5092580;28;20056;-57
2021/12/09 02:08:52;;;;;;;25.98;13.73;;;1.40;99.90;;;;;;5112984;28;20500;-57
2021/12/09 02:11:19;;;;;;;28.55;15.23;;;1.50;99.90;;;;;;5106072;28;20492;-57
2021/12/09 02:13:45;;;;;;;25.80;14.10;;;1.50;99.90;;;;;;5112446;28;20069;-55
2021/12/09 02:16:13;;;;;;;30.15;15.18;;;1.50;99.90;;;;;;5109682;28;20383;-55
2021/12/09 02:18:39;;;;;;;23.35;13.88;;;1.50;99.90;;;;;;5112723;28;20040;-57
2021/12/09 02:21:12;;;;;;;25.80;14.25;;;1.50;99.90;;;;;;5109638;28;20035;-57
2021/12/09 02:23:41;;;;;;;21.35;13.52;;;1.50;99.90;;;;;;5110526;28;20039;-57
2021/12/09 02:26:08;;;;;;;28.27;13.60;;;1.50;99.90;;;;;;5106103;28;20031;-57
2021/12/09 02:28:33;;;;;;;23.98;14.00;;;1.50;99.90;;;;;;5091989;28;20506;-58
2021/12/09 02:30:59;;;;;;;31.13;14.43;;;1.50;99.90;;;;;;5112596;28;20059;-57
2021/12/09 02:33:25;;;;;;;23.02;13.95;;;1.50;99.90;;;;;;5109112;28;20086;-57
2021/12/09 02:35:50;;;;;;;27.38;14.32;;;1.50;99.90;;;;;;5111843;28;20035;-57
2021/12/09 02:38:16;;;;;;;28.35;14.18;;;1.50;99.90;;;;;;5112078;28;20122;-57
2021/12/09 02:40:42;;;;;;;24.00;13.63;;;1.40;99.90;;;;;;5105613;28;20036;-57
2021/12/09 02:43:08;;;;;;;30.42;14.65;;;1.40;99.90;;;;;;5112324;28;20126;-57
2021/12/09 02:45:35;;;;;;;24.30;14.48;;;1.40;99.90;;;;;;5102213;28;20037;-58
2021/12/09 02:48:01;;;;;;;33.20;15.10;;;1.30;99.90;;;;;;5111823;28;20538;-57
2021/12/09 02:50:27;;;;;;;28.33;14.55;;;1.40;99.90;;;;;;5110849;28;20115;-56
2021/12/09 02:52:53;;;;;;;23.45;14.27;;;1.30;99.90;;;;;;5111121;28;20028;-56
2021/12/09 02:55:19;;;;;;;26.95;14.95;;;1.30;99.90;;;;;;5103279;28;20043;-56
2021/12/09 02:57:44;;;;;;;26.88;14.55;;;1.30;99.90;;;;;;5091533;28;20461;-57
2021/12/09 03:00:11;;;;;;;28.33;13.70;;;1.30;99.90;;;;;;5107860;28;20035;-57
2021/12/09 03:02:37;;;;;;;26.27;15.02;;;1.20;99.90;;;;;;5111875;28;20028;-57
2021/12/09 03:05:05;;;;;;;29.98;15.20;;;1.30;99.90;;;;;;5091806;28;20036;-57
2021/12/09 03:07:34;;;;;;;28.65;15.05;;;1.20;99.90;;;;;;5112052;28;20047;-57
2021/12/09 03:10:09;;;;;;;24.75;14.40;;;1.20;99.90;;;;;;5105122;28;20043;-57
2021/12/09 03:12:42;;;;;;;26.80;15.30;;;1.20;99.90;;;;;;5110146;28;20043;-57
2021/12/09 03:15:09;;;;;;;27.27;14.57;;;1.20;99.90;;;;;;5109261;28;20500;-56
2021/12/09 03:17:37;;;;;;;26.20;15.00;;;1.20;99.90;;;;;;5111575;28;20106;-56
2021/12/09 03:20:04;;;;;;;29.10;15.43;;;1.20;99.90;;;;;;5107017;28;20043;-57
2021/12/09 03:22:30;;;;;;;34.13;15.55;;;1.20;99.90;;;;;;5108017;28;20046;-57
2021/12/09 03:24:56;;;;;;;31.30;16.15;;;1.20;99.90;;;;;;5104137;28;20035;-57
2021/12/09 03:27:22;;;;;;;32.97;14.77;;;1.20;99.90;;;;;;5106983;28;20299;-57
2021/12/09 03:29:47;;;;;;;29.73;15.30;;;1.20;99.90;;;;;;5109343;28;20086;-57
2021/12/09 03:32:16;;;;;;;25.25;14.68;;;1.20;99.90;;;;;;5111220;28;20406;-57
2021/12/09 03:34:44;;;;;;;30.45;16.20;;;1.20;99.90;;;;;;5102234;28;20047;-57
2021/12/09 03:37:19;;;;;;;27.58;15.73;;;1.20;99.90;;;;;;5092893;28;20036;-57
2021/12/09 03:39:44;;;;;;;31.40;15.70;;;1.20;99.90;;;;;;5110078;28;20044;-57
2021/12/09 03:42:17;;;;;;;26.13;15.00;;;1.10;99.90;;;;;;5104098;28;20054;-58
2021/12/09 03:44:45;;;;;;;26.20;15.18;;;1.10;99.90;;;;;;5107997;28;20039;-57
2021/12/09 03:47:13;;;;;;;24.35;15.00;;;1.10;99.90;;;;;;5105607;28;20048;-58
2021/12/09 03:49:42;;;;;;;33.00;15.57;;;1.10;99.90;;;;;;5106545;28;20039;-56
2021/12/09 03:52:08;;;;;;;26.23;15.10;;;1.10;99.90;;;;;;5111058;28;20122;-57
2021/12/09 03:54:34;;;;;;;30.42;14.88;;;1.10;99.90;;;;;;5108955;28;20386;-57
2021/12/09 03:57:00;;;;;;;28.65;15.63;;;1.00;99.90;;;;;;5105444;28;20044;-57
2021/12/09 03:59:26;;;;;;;26.08;15.02;;;1.00;99.90;;;;;;5110955;28;20496;-57
2021/12/09 04:01:52;;;;;;;26.02;15.18;;;1.00;99.90;;;;;;5108523;28;20122;-57
2021/12/09 04:04:18;;;;;;;32.83;15.30;;;1.00;99.90;;;;;;5110701;28;20036;-57
2021/12/09 04:06:45;;;;;;;31.42;16.15;;;1.00;99.90;;;;;;5107619;28;20077;-56
2021/12/09 04:09:14;;;;;;;27.88;14.55;;;1.00;99.90;;;;;;5108686;28;20035;-57
2021/12/09 04:11:40;;;;;;;28.50;15.18;;;1.00;99.90;;;;;;5104156;28;20047;-57
2021/12/09 04:14:06;;;;;;;28.50;15.13;;;1.00;99.90;;;;;;5107665;28;20061;-57
2021/12/09 04:16:33;;;;;;;31.75;16.50;;;1.00;99.90;;;;;;5106239;28;20035;-57
2021/12/09 04:18:59;;;;;;;27.67;14.90;;;0.90;99.90;;;;;;5111035;28;20035;-58
2021/12/09 04:21:26;;;;;;;28.05;15.80;;;0.90;99.90;;;;;;5106155;28;20036;-57
2021/12/09 04:23:52;;;;;;;29.20;15.45;;;0.90;99.90;;;;;;5105918;28;20486;-57
2021/12/09 04:26:18;;;;;;;27.52;16.35;;;0.90;99.90;;;;;;5079474;28;20035;-57
2021/12/09 04:28:45;;;;;;;30.88;15.73;;;0.90;99.90;;;;;;5103456;28;20108;-57
2021/12/09 04:31:11;;;;;;;31.73;15.98;;;1.00;99.90;;;;;;5110510;28;20394;-57
2021/12/09 04:33:37;;;;;;;30.17;16.10;;;0.90;99.90;;;;;;5109792;28;20028;-57
2021/12/09 04:36:03;;;;;;;30.73;15.93;;;0.90;99.90;;;;;;5112066;28;20067;-57
2021/12/09 04:38:29;;;;;;;29.45;15.38;;;0.90;99.90;;;;;;5112768;28;20036;-57
2021/12/09 04:40:55;;;;;;;31.73;16.00;;;0.90;99.90;;;;;;5106822;28;20043;-57
2021/12/09 04:43:20;;;;;;;32.25;16.20;;;0.80;99.90;;;;;;5096418;28;20040;-57
2021/12/09 04:45:47;;;;;;;30.70;15.80;;;0.90;99.90;;;;;;5110613;28;20443;-57
2021/12/09 04:48:12;;;;;;;30.02;16.02;;;0.90;99.90;;;;;;5096043;28;20081;-58
2021/12/09 04:50:39;;;;;;;28.50;15.93;;;0.90;99.90;;;;;;5110611;28;20075;-57
2021/12/09 04:53:06;;;;;;;31.85;16.38;;;0.80;99.90;;;;;;5110973;28;20032;-58
2021/12/09 04:55:32;;;;;;;26.63;15.98;;;0.80;99.90;;;;;;5109320;28;20098;-58
2021/12/09 04:57:58;;;;;;;31.88;15.93;;;0.80;99.90;;;;;;5111930;28;20070;-57
2021/12/09 05:00:26;;;;;;;23.40;15.90;;;0.80;99.90;;;;;;5096084;28;20069;-57
2021/12/09 05:05:24;;;;;;;31.60;17.08;;;0.80;99.90;;;;;;5113741;28;20086;-56
2021/12/09 05:07:50;;;;;;;28.75;14.82;;;0.80;99.90;;;;;;5113049;28;20069;-58
2021/12/09 05:10:16;;;;;;;32.90;15.88;;;0.80;99.90;;;;;;5111105;28;20494;-58
2021/12/09 05:12:42;;;;;;;37.80;16.38;;;0.80;99.90;;;;;;5112497;28;20039;-58
2021/12/09 05:15:09;;;;;;;29.85;16.52;;;0.70;99.90;;;;;;5109457;28;20039;-57
2021/12/09 05:17:34;;;;;;;33.20;16.88;;;0.70;99.90;;;;;;5095557;28;20047;-58
2021/12/09 05:20:01;;;;;;;37.88;16.30;;;0.80;99.90;;;;;;5088730;28;20092;-56
2021/12/09 05:22:27;;;;;;;30.38;16.38;;;0.70;99.90;;;;;;5113815;28;20378;-57
2021/12/09 05:24:53;;;;;;;32.30;16.60;;;0.70;99.90;;;;;;5092805;28;20039;-56
2021/12/09 05:27:20;;;;;;;28.23;16.48;;;0.70;99.90;;;;;;5112006;28;20044;-57
2021/12/09 05:29:52;;;;;;;30.10;16.23;;;1.60;99.90;;;;;;5094051;28;20043;-58
2021/12/09 05:32:20;;;;;;;31.85;16.60;;;0.70;99.90;;;;;;5113667;28;20042;-57
2021/12/09 05:34:48;;;;;;;30.75;16.08;;;0.70;99.90;;;;;;5112282;28;20131;-58
2021/12/09 05:37:17;;;;;;;30.38;16.70;;;0.70;99.90;;;;;;5113813;28;20072;-57
2021/12/09 05:39:44;;;;;;;31.08;15.10;;;0.70;99.90;;;;;;5112214;28;20398;-57
2021/12/09 05:42:12;;;;;;;33.65;16.55;;;0.70;99.90;;;;;;5107298;28;20036;-58
2021/12/09 05:44:38;;;;;;;30.55;16.60;;;0.70;99.90;;;;;;5111069;28;20036;-57
2021/12/09 05:47:05;;;;;;;30.13;16.65;;;0.70;99.90;;;;;;5108814;28;20042;-57
2021/12/09 05:49:33;;;;;;;32.78;15.60;;;0.70;99.90;;;;;;5113226;28;20130;-56
2021/12/09 05:52:00;;;;;;;32.70;17.52;;;0.80;99.90;;;;;;5093225;28;20075;-57
2021/12/09 05:54:26;;;;;;;33.83;17.90;;;0.70;99.90;;;;;;5109113;28;20067;-57
2021/12/09 05:56:52;;;;;;;38.25;17.42;;;0.70;99.90;;;;;;5110215;28;20184;-58
2021/12/09 05:59:18;;;;;;;32.30;16.10;;;0.70;99.90;;;;;;5111347;28;20031;-58
2021/12/09 06:01:43;;;;;;;39.50;16.15;;;0.70;99.90;;;;;;5111391;28;20371;-58
2021/12/09 06:04:09;;;;;;;34.78;16.10;;;0.70;99.90;;;;;;5111142;28;20050;-57
2021/12/09 06:06:37;;;;;;;32.95;15.68;;;0.70;99.90;;;;;;5113036;28;20104;-56
2021/12/09 06:09:07;;;;;;;30.92;15.93;;;0.70;99.90;;;;;;5109531;28;20044;-57
2021/12/09 06:11:34;;;;;;;29.15;15.00;;;0.70;99.90;;;;;;5108638;28;20050;-55
2021/12/09 06:14:01;;;;;;;31.88;14.70;;;0.70;99.90;;;;;;5109902;28;20032;-57
2021/12/09 06:16:27;;;;;;;32.35;15.30;;;0.70;99.90;;;;;;5111615;28;20073;-56
2021/12/09 06:18:54;;;;;;;30.25;16.05;;;0.70;99.90;;;;;;5090693;28;20046;-57
2021/12/09 06:21:22;;;;;;;34.03;15.95;;;0.70;99.90;;;;;;5111486;28;20116;-58
2021/12/09 06:23:48;;;;;;;31.80;16.42;;;0.70;99.90;;;;;;5089337;28;20130;-57
2021/12/09 06:26:14;;;;;;;31.95;17.13;;;0.70;99.90;;;;;;5104050;28;20122;-58
2021/12/09 06:28:40;;;;;;;33.28;16.40;;;0.70;99.90;;;;;;5111828;28;20131;-57
2021/12/09 06:31:06;;;;;;;32.05;15.85;;;0.70;99.90;;;;;;5110327;28;20510;-57
2021/12/09 06:33:32;;;;;;;33.75;15.85;;;0.70;99.90;;;;;;5112402;28;20079;-58
2021/12/09 06:35:59;;;;;;;32.38;16.33;;;0.70;99.90;;;;;;5110544;28;20075;-57
2021/12/09 06:38:24;;;;;;;32.38;15.95;;;0.70;99.90;;;;;;5112499;28;20036;-55
2021/12/09 06:40:50;;;;;;;37.40;16.63;;;0.70;99.90;;;;;;5106059;28;20036;-57
2021/12/09 06:43:16;;;;;;;31.55;16.05;;;0.70;99.90;;;;;;5112366;28;20118;-58
2021/12/09 06:45:42;;;;;;;32.80;16.27;;;0.70;99.90;;;;;;5110356;28;20069;-55
2021/12/09 06:48:09;;;;;;;27.30;15.25;;;0.70;99.90;;;;;;5112147;28;20044;-57
2021/12/09 06:50:36;;;;;;;31.20;15.40;;;0.70;99.90;;;;;;5105218;28;20035;-57
2021/12/09 06:53:02;;;;;;;27.35;15.60;;;0.70;99.90;;;;;;5077161;28;20044;-57
2021/12/09 06:55:27;;;;;;;37.08;16.17;;;0.60;99.90;;;;;;5060372;28;20376;-57
2021/12/09 06:57:53;;;;;;;33.25;15.85;;;0.60;99.90;;;;;;5064967;28;20043;-57
2021/12/09 07:00:26;;;;;;;38.65;16.35;;;0.80;99.90;;;;;;5081428;28;20115;-57
2021/12/09 07:02:53;;;;;;;33.47;16.48;;;0.60;99.90;;;;;;5077930;28;20048;-57
2021/12/09 07:05:20;;;;;;;36.17;15.40;;;0.60;99.90;;;;;;5074395;28;20082;-55
2021/12/09 07:07:46;;;;;;;32.17;15.77;;;0.70;99.90;;;;;;5073821;28;20047;-56
2021/12/09 07:10:14;;;;;;;30.88;15.63;;;0.60;99.90;;;;;;5073709;28;20043;-56
2021/12/09 07:12:40;;;;;;;33.30;15.90;;;0.60;99.90;;;;;;5072564;28;20499;-56
2021/12/09 07:15:08;;;;;;;37.53;15.88;;;0.60;99.90;;;;;;5071417;28;20046;-57
2021/12/09 07:17:35;;;;;;;31.33;14.70;;;0.60;99.90;;;;;;5087562;27;20098;-56
2021/12/09 07:20:06;;;;;;;32.30;15.48;;;0.60;99.90;;;;;;5073248;28;20044;-57
2021/12/09 07:22:32;;;;;;;32.88;15.80;;;0.60;99.90;;;;;;5070290;28;20047;-57
2021/12/09 07:24:57;;;;;;;33.30;16.00;;;0.60;99.90;;;;;;5063231;28;21257;-57
2021/12/09 07:27:23;;;;;;;30.13;15.95;;;0.60;99.90;;;;;;5076017;28;20035;-56
2021/12/09 07:29:49;;;;;;;32.80;15.75;;;0.60;99.90;;;;;;5073066;28;20043;-57
2021/12/09 07:32:15;;;;;;;36.25;15.85;;;0.60;99.90;;;;;;5071627;28;20043;-57
2021/12/09 07:34:40;;;;;;;35.47;16.10;;;0.70;99.90;;;;;;5087655;27;20050;-57
2021/12/09 07:37:06;;;;;;;29.77;16.13;;;0.60;99.90;;;;;;5075456;28;20116;-57
2021/12/09 07:39:33;;;;;;;31.95;15.23;;;0.60;99.90;;;;;;5086497;27;20143;-57
2021/12/09 07:42:00;;;;;;;31.73;15.30;;;0.60;99.90;;;;;;5070671;28;20040;-56
2021/12/09 07:44:30;;;;;;;31.92;15.82;;;0.60;99.90;;;;;;5086852;27;20083;-57
2021/12/09 07:46:57;;;;;;;33.08;14.88;;;0.60;99.90;;;;;;5071792;28;20055;-56
2021/12/09 07:49:24;;;;;;;35.20;14.82;;;0.60;99.90;;;;;;5075080;28;20071;-55
2021/12/09 07:51:51;;;;;;;34.28;15.93;;;0.60;99.90;;;;;;5071482;28;20255;-57
2021/12/09 07:54:17;;;;;;;32.88;15.70;;;0.60;99.90;;;;;;5071518;28;20071;-57
2021/12/09 07:56:44;;;;;;;34.13;16.33;;;0.60;99.90;;;;;;5071899;28;20089;-57
2021/12/09 07:59:11;;;;;;;36.83;15.30;;;0.60;99.90;;;;;;5041564;28;20044;-57
2021/12/09 08:01:38;;;;;;;37.80;15.18;;;0.60;99.90;;;;;;5075031;28;20096;-57
2021/12/09 08:04:05;;;;;;;30.60;15.10;;;0.60;99.90;;;;;;5069915;28;20102;-56
2021/12/09 08:06:30;;;;;;;35.28;15.63;;;0.60;99.90;;;;;;5084935;28;21872;-56
2021/12/09 08:08:57;;;;;;;31.17;15.65;;;0.60;99.90;;;;;;5072584;28;20048;-57
2021/12/09 08:11:23;;;;;;;34.13;15.25;;;0.60;99.90;;;;;;5075315;28;20134;-56
2021/12/09 08:13:49;;;;;;;34.45;15.48;;;0.60;99.90;;;;;;5075297;28;20048;-57
2021/12/09 08:16:16;;;;;;;35.13;15.63;;;0.60;99.90;;;;;;5074314;28;20042;-58
2021/12/09 08:18:56;;;;;;;32.50;14.23;;;0.60;99.90;;;;;;5041688;28;22029;-58
2021/12/09 08:21:26;;;;;;;31.10;13.90;;;0.60;99.90;;;;;;5064105;28;20055;-57
2021/12/09 08:23:53;;;;;;;32.20;15.00;;;0.60;99.90;;;;;;5060072;28;20040;-57
2021/12/09 08:26:21;;;;;;;28.45;14.82;;;0.60;99.90;;;;;;5051905;28;22605;-58
2021/12/09 08:28:47;;;;;;;29.35;14.82;;;0.60;99.90;;;;;;5075451;28;20066;-58
2021/12/09 08:31:13;;;;;;;32.30;14.88;;;0.60;99.90;;;;;;5053575;28;20028;-58
2021/12/09 08:33:39;;;;;;;27.40;14.05;;;0.60;99.90;;;;;;5068011;28;20486;-55
2021/12/09 08:36:05;;;;;;;31.52;13.90;;;0.60;99.90;;;;;;5069961;28;20183;-58
2021/12/09 08:38:30;;;;;;;34.75;14.80;;;0.60;99.90;;;;;;5068318;28;20467;-56
2021/12/09 08:40:57;;;;;;;30.80;14.20;;;0.70;99.90;;;;;;5080059;28;20332;-58
2021/12/09 08:43:23;;;;;;;24.23;13.80;;;0.70;99.90;;;;;;5105308;28;20028;-57
2021/12/09 08:45:51;;;;;;;27.85;14.25;;;0.90;99.90;;;;;;5102906;28;20057;-58
2021/12/09 08:48:17;;;;;;;34.10;13.88;;;0.70;99.90;;;;;;5106599;28;20062;-58
2021/12/09 08:50:44;;;;;;;28.35;13.13;;;0.80;99.90;;;;;;5085986;28;20039;-56
2021/12/09 08:53:13;;;;;;;27.55;14.63;;;0.80;99.90;;;;;;5105151;28;20090;-57
2021/12/09 08:55:40;;;;;;;26.02;14.05;;;0.80;99.90;;;;;;5101394;28;20039;-58
2021/12/09 08:58:07;;;;;;;26.98;13.20;;;0.80;99.90;;;;;;5106053;28;20681;-58
2021/12/09 09:00:34;;;;;;;29.40;13.85;;;0.80;99.90;;;;;;5103166;28;20035;-58
2021/12/09 09:03:00;;;;;;;27.80;13.63;;;0.90;99.90;;;;;;5088188;28;20032;-58
2021/12/09 09:05:26;;;;;;;28.83;12.55;;;0.90;99.90;;;;;;5101046;28;20043;-58
2021/12/09 09:07:53;;;;;;;25.33;13.18;;;0.90;99.90;;;;;;5074795;28;20078;-57
2021/12/09 09:10:22;;;;;;;26.00;13.55;;;0.90;99.90;;;;;;5101923;28;20046;-57
2021/12/09 09:12:48;;;;;;;28.23;12.88;;;1.00;99.90;;;;;;5104739;28;20038;-57
2021/12/09 09:15:18;;;;;;;25.77;12.65;;;1.00;99.90;;;;;;5103428;28;20039;-58
2021/12/09 09:17:44;;;;;;;27.38;12.68;;;1.00;99.90;;;;;;5105244;28;20031;-57
2021/12/09 09:20:12;;;;;;;25.45;12.90;;;1.10;99.90;;;;;;5102790;28;20044;-57
2021/12/09 09:22:39;;;;;;;29.08;13.23;;;1.10;99.90;;;;;;5097063;28;20466;-58
2021/12/09 09:25:07;;;;;;;26.45;13.75;;;1.20;99.90;;;;;;5097445;28;20114;-57
2021/12/09 09:27:33;;;;;;;25.58;12.98;;;0.20;99.90;;;;;;5100585;28;20059;-57
2021/12/09 09:29:59;;;;;;;27.27;12.27;;;1.30;99.90;;;;;;5100459;28;20090;-57
2021/12/09 09:32:24;;;;;;;24.13;12.10;;;1.40;99.90;;;;;;5104049;28;20032;-57
2021/12/09 09:34:53;;;;;;;26.75;11.30;;;1.40;99.90;;;;;;5055882;28;20040;-57
2021/12/09 09:37:20;;;;;;;27.70;11.63;;;1.50;99.90;;;;;;5064148;28;20089;-57
2021/12/09 09:39:47;;;;;;;24.23;10.60;;;1.50;99.90;;;;;;5079586;28;21840;-58
2021/12/09 09:44:54;;;;;;;22.13;11.07;;;1.60;99.90;;;;;;5086695;27;20043;-57
2021/12/09 09:47:22;;;;;;;21.13;10.45;;;1.60;99.90;;;;;;5067208;28;20096;-57
2021/12/09 09:49:49;;;;;;;23.63;10.15;;;1.70;99.90;;;;;;5069350;28;20513;-57
2021/12/09 09:52:15;;;;;;;19.92;10.35;;;1.70;99.90;;;;;;5062502;28;20031;-57
2021/12/09 09:54:41;;;;;;;25.45;10.45;;;1.70;99.90;;;;;;5101120;28;20120;-57
2021/12/09 09:57:09;;;;;;;23.25;10.32;;;1.70;99.90;;;;;;5075841;28;20023;-58
2021/12/09 09:59:36;;;;;;;18.95;10.45;;;1.70;99.90;;;;;;5101955;28;20031;-57
2021/12/09 10:02:04;;;;;;;26.98;11.23;;;1.70;99.90;;;;;;5101055;28;20189;-57
2021/12/09 10:04:43;;;;;;;26.30;11.45;;;1.70;99.90;;;;;;5084647;28;20537;-57
2021/12/09 10:07:10;;;;;;;22.42;10.68;;;1.80;99.90;;;;;;5100566;28;20069;-56
2021/12/09 10:09:36;;;;;;;16.80;9.13;;;1.80;99.90;;;;;;5101814;28;20079;-57
2021/12/09 10:12:02;;;;;;;20.30;10.15;;;1.80;99.90;;;;;;5098964;28;20482;-57
2021/12/09 10:14:32;;;;;;;22.73;10.65;;;1.80;99.90;;;;;;5110284;27;20046;-55
2021/12/09 10:17:05;;;;;;;21.67;9.95;;;1.80;99.90;;;;;;5101839;28;20082;-56
2021/12/09 10:19:33;;;;;;;25.48;11.40;;;1.90;99.90;;;;;;5101690;28;20069;-57
2021/12/09 10:22:17;;;;;;;23.52;11.25;;;1.90;99.90;;;;;;5099968;28;20028;-57
2021/12/09 10:24:45;;;;;;;;;;;1.90;99.90;;;;;;5098649;28;20044;-57
2021/12/09 10:27:30;;;;;;;21.48;10.93;;;2.00;99.90;;;;;;5101246;28;19915;-58
2021/12/09 10:30:11;;;;;;;23.98;10.77;;;2.00;99.90;;;;;;5102564;28;20516;-57
2021/12/09 10:32:37;;;;;;;23.80;11.00;;;2.10;99.90;;;;;;5101049;28;20145;-58
2021/12/09 10:35:21;;;;;;;21.27;10.70;;;2.10;99.90;;;;;;5080227;28;20040;-56
2021/12/09 10:37:49;;;;;;;21.17;9.98;;;2.20;99.90;;;;;;5101782;28;20038;-57
2021/12/09 10:40:26;;;;;;;21.95;11.35;;;2.30;99.90;;;;;;5067760;28;20456;-57
2021/12/09 10:42:54;;;;;;;24.23;10.93;;;2.20;99.90;;;;;;5069405;28;20044;-57
2021/12/09 10:45:28;;;;;;;28.75;11.52;;;2.30;99.90;;;;;;5078370;28;20048;-59
2021/12/09 10:51:04;;;;;;;22.63;11.95;;;2.30;99.90;;;;;;5069686;28;20054;-57
2021/12/09 10:53:47;;;;;;;27.30;12.30;;;2.30;99.90;;;;;;5066969;28;20084;-58
2021/12/09 10:56:28;;;;;;;25.73;11.23;;;2.40;99.90;;;;;;5065624;28;20523;-58
2021/12/09 10:58:54;;;;;;;21.77;11.73;;;2.40;99.90;;;;;;5064850;28;20604;-57
2021/12/09 11:01:23;;;;;;;25.02;12.75;;;2.50;99.90;;;;;;5067844;28;20043;-57
2021/12/09 11:03:50;;;;;;;24.13;13.82;;;2.50;99.90;;;;;;5059189;28;20143;-59
2021/12/09 11:06:33;;;;;;;29.15;14.05;;;2.50;99.90;;;;;;5058264;28;20080;-58
2021/12/09 11:09:01;;;;;;;29.95;14.07;;;2.60;99.90;;;;;;5063093;28;20048;-59
2021/12/09 11:11:34;;;;;;;25.38;14.63;;;2.60;99.90;;;;;;5066659;28;20186;-59
2021/12/09 11:14:03;;;;;;;25.25;13.95;;;2.60;99.90;;;;;;5082765;28;20081;-58
2021/12/09 11:16:30;;;;;;;30.98;14.73;;;2.60;99.90;;;;;;5109473;27;20036;-58
2021/12/09 11:21:58;;;;;;;31.80;16.35;;;2.60;99.90;;;;;;5056854;28;20043;-58
2021/12/09 11:24:30;;;;;;;28.92;16.02;;;2.70;99.90;;;;;;5073050;28;20039;-58
2021/12/09 11:27:02;;;;;;;27.98;15.23;;;2.70;99.90;;;;;;5097955;28;20036;-58
2021/12/09 11:29:43;;;;;;;27.92;15.15;;;2.70;99.90;;;;;;5100724;28;20122;-58
2021/12/09 11:32:39;;;;;;;37.55;17.20;;;2.80;99.90;;;;;;5097603;28;20059;-58
2021/12/09 11:35:23;;;;;;;35.38;16.63;;;2.80;99.90;;;;;;5078079;28;20043;-58
2021/12/09 11:38:02;;;;;;;33.10;17.48;;;2.80;99.90;;;;;;5062831;28;20464;-58
2021/12/09 11:40:45;;;;;;;29.48;16.23;;;2.90;99.90;;;;;;5068312;28;20040;-58
2021/12/09 11:43:18;;;;;;;35.45;16.33;;;2.90;99.90;;;;;;5066205;28;20032;-57
2021/12/09 11:45:46;;;;;;;38.30;17.13;;;2.90;99.90;;;;;;5065122;28;20418;-58
2021/12/09 11:48:13;;;;;;;37.97;16.65;;;3.10;99.90;;;;;;5065286;28;20047;-59
2021/12/09 11:50:45;;;;;;;32.47;16.30;;;3.00;99.90;;;;;;5066877;28;20085;-58
2021/12/09 11:53:14;;;;;;;34.58;18.83;;;2.90;99.90;;;;;;5068287;28;20035;-58
2021/12/09 11:55:45;;;;;;;33.45;17.58;;;2.90;99.90;;;;;;5066508;28;20056;-58
2021/12/09 11:58:28;;;;;;;31.25;17.67;;;2.90;99.90;;;;;;5081858;28;20032;-59
2021/12/09 12:13:02;;;;;;;35.85;18.83;;;3.00;99.90;;;;;;5105620;28;20443;-58
2021/12/09 12:30:16;;;;;;;37.75;18.80;;;3.10;99.90;;;;;;5108603;28;20032;-59
2021/12/09 12:40:26;;;;;;;35.65;18.27;;;3.30;99.90;;;;;;5110883;28;20043;-58
2021/12/09 12:45:46;;;;;;;41.65;19.25;;;3.30;99.90;;;;;;5110825;28;20046;-58
2021/12/09 12:51:10;;;;;;;41.80;19.63;;;3.30;99.90;;;;;;5110588;28;20050;-58
2021/12/09 12:53:41;;;;;;;35.67;20.08;;;3.30;99.90;;;;;;5111029;28;20044;-59
2021/12/09 12:56:57;;;;;;;43.40;19.40;;;3.30;99.90;;;;;;5110683;28;20471;-58
2021/12/09 12:59:29;;;;;;;33.78;19.02;;;3.30;99.90;;;;;;5112021;28;20046;-59
2021/12/09 13:02:11;;;;;;;40.20;19.70;;;3.30;99.90;;;;;;5114484;28;20071;-58
2021/12/09 13:04:53;;;;;;;36.72;19.80;;;3.40;99.90;;;;;;5114345;28;20047;-58
2021/12/09 13:07:41;;;;;;;38.38;19.15;;;3.40;99.90;;;;;;5113842;28;20048;-59
2021/12/09 13:10:44;;;;;;;33.33;17.92;;;3.40;99.90;;;;;;5107773;28;20043;-58
2021/12/09 13:13:19;;;;;;;31.27;17.17;;;3.40;99.90;;;;;;5109723;28;20035;-59
2021/12/09 13:16:11;;;;;;;33.00;18.85;;;3.40;99.90;;;;;;5112556;28;20050;-58
2021/12/09 13:19:00;;;;;;;32.33;17.27;;;3.40;99.90;;;;;;5106539;28;20036;-59
2021/12/09 13:21:32;;;;;;;32.42;17.27;;;3.40;99.90;;;;;;5108346;28;20039;-59
2021/12/09 13:25:01;;;;;;;28.77;16.30;;;3.40;99.90;;;;;;5113263;28;20070;-58
2021/12/09 13:28:05;;;;;;;30.70;15.70;;;3.50;99.90;;;;;;5049326;28;20585;-59
2021/12/09 13:49:36;;;;;;;30.50;16.35;;;3.50;99.90;;;;;;5112912;28;20497;-58
2021/12/09 13:55:06;;;;;;;34.45;16.50;;;3.50;99.90;;;;;;5110601;28;20478;-57
2021/12/09 13:57:39;;;;;;;28.42;15.60;;;2.60;99.90;;;;;;5108936;28;20532;-58
2021/12/09 14:00:11;;;;;;;30.33;15.27;;;3.60;99.90;;;;;;5093959;28;20390;-59